Date,TemperatureHighF,TemperatureAvgF,TemperatureLowF,DewpointHighF,DewpointAvgF,DewpointLowF,HumidityHigh,HumidityAvg,HumidityLow,PressureMaxIn,PressureMinIn,WindSpeedMaxMPH,WindSpeedAvgMPH,GustSpeedMaxMPH,PrecipitationSumIn
2013-4-12,43.9,41.1,39.4,43.0,39.7,37.0,96,93,86,28.67,28.52,20,10,27,0.87
2013-4-13,43.7,41.0,37.7,40.0,37.4,33.0,95,86,69,28.81,28.66,27,10,32,0.01
2013-4-14,46.2,39.8,34.3,37.0,31.2,26.0,95,71,53,29.08,28.81,16,4,22,0.03
2013-4-15,71.3,54.3,37.6,48.0,39.8,28.0,74,59,40,29.13,28.99,19,5,22,0.00
2013-4-16,65.6,57.3,44.2,58.0,49.7,36.0,97,77,59,29.17,28.97,26,8,33,0.11
2013-4-17,55.5,46.0,34.6,40.0,34.5,31.0,95,66,40,29.34,29.12,12,3,16,0.00
2013-4-18,80.6,62.5,44.3,59.5,49.0,33.0,84,63,45,29.14,28.73,30,8,31,0.02
2013-4-19,73.6,58.2,42.4,60.5,47.6,29.0,92,68,57,28.77,28.43,39,13,52,0.17
2013-4-20,42.6,37.3,31.6,35.0,27.7,21.0,95,67,53,29.25,28.63,27,11,33,0.06
2013-4-21,44.5,35.5,24.3,29.0,22.7,14.0,93,59,40,29.60,29.25,12,3,17,0.00
2013-4-22,60.8,47.1,32.2,36.0,26.2,14.0,70,45,27,29.48,29.24,16,4,19,0.00
2013-4-23,68.7,53.6,41.2,43.0,33.2,26.0,64,47,26,29.24,28.90,12,4,14,0.00
2013-4-24,64.8,53.6,37.4,58.0,44.4,36.0,98,74,46,28.91,28.61,25,7,27,0.39
2013-4-25,55.9,43.6,34.9,42.0,35.0,24.0,96,76,35,29.19,28.91,21,6,25,0.06
2013-4-26,56.0,45.7,36.9,40.0,32.3,21.0,96,64,26,29.45,29.19,12,4,16,0.01
2013-4-27,68.1,53.8,38.3,44.0,35.7,31.0,84,53,29,29.42,29.17,11,3,12,0.00
2013-4-28,73.9,60.0,48.8,52.0,41.0,32.0,87,53,23,29.23,28.99,20,5,25,0.04
2013-4-29,65.4,58.1,50.8,56.0,51.4,47.5,97,79,62,29.05,28.92,14,4,16,0.03
2013-4-30,71.6,63.6,57.1,57.0,54.0,50.5,90,72,51,29.24,29.03,15,4,17,0.00
2013-5-1,79.7,67.0,54.8,55.0,49.2,35.0,91,56,29,29.42,29.20,9,2,12,0.00
2013-5-2,75.9,65.2,53.6,45.0,38.7,33.0,61,39,22,29.49,29.26,12,3,15,0.00
2013-5-3,76.5,66.5,55.5,53.5,43.5,39.0,60,44,28,29.39,29.22,11,3,15,0.00
2013-5-4,71.6,62.1,49.0,48.0,42.7,33.0,87,51,29,29.35,29.15,13,3,14,0.00
2013-5-5,74.5,63.3,47.1,48.0,43.5,39.0,90,51,32,29.30,29.09,11,2,14,0.00
2013-5-6,72.9,60.9,45.7,46.0,40.0,29.0,88,51,20,29.25,29.01,11,2,14,0.00
2013-5-7,76.6,64.0,48.7,57.0,49.9,43.0,97,63,40,29.23,29.00,10,2,12,0.00
2013-5-8,72.7,62.9,56.0,62.5,55.9,48.0,98,79,56,29.13,28.94,9,2,11,0.20
2013-5-9,72.7,61.6,55.9,63.5,57.6,54.0,98,88,57,29.03,28.88,10,2,11,0.35
2013-5-10,75.5,61.3,51.1,63.0,57.3,50.5,98,87,55,28.95,28.73,24,4,24,0.29
2013-5-11,60.7,52.0,46.3,60.0,50.3,45.0,98,94,78,28.77,28.65,19,6,23,0.11
2013-5-12,50.7,42.8,37.9,50.0,38.1,31.0,97,83,55,28.83,28.65,26,8,31,0.27
2013-5-13,48.2,41.1,35.1,38.0,34.5,31.0,92,77,54,29.04,28.82,17,7,23,0.00
2013-5-14,59.4,47.4,33.5,42.0,34.5,28.0,96,65,33,29.12,28.88,11,3,15,0.00
2013-5-15,76.5,61.4,49.4,61.0,48.0,40.0,94,64,40,28.88,28.62,29,6,38,0.06
2013-5-16,73.3,61.7,50.4,52.0,44.4,32.0,94,57,25,28.99,28.71,24,5,29,0.00
2013-5-17,67.1,54.6,39.4,46.0,41.2,33.0,97,65,31,29.27,28.98,7,1,10,0.00
2013-5-18,71.6,58.8,43.7,50.0,43.9,38.0,97,61,37,29.31,29.13,11,2,15,0.00
2013-5-19,79.5,67.9,56.9,63.5,57.7,43.0,95,71,51,29.22,29.05,9,2,12,0.00
2013-5-20,83.5,72.7,62.4,68.5,63.5,59.5,93,74,54,29.15,28.96,16,3,21,0.00
2013-5-21,86.3,72.8,61.9,71.0,65.0,59.5,99,78,48,29.03,28.83,15,4,21,0.03
2013-5-22,86.9,73.4,59.9,67.5,62.8,59.5,99,72,44,28.94,28.79,18,4,20,0.01
2013-5-23,74.6,63.6,43.9,65.5,58.5,43.0,98,85,60,28.86,28.75,19,6,21,0.20
2013-5-24,52.9,44.0,38.6,43.0,38.8,36.0,96,83,55,29.17,28.86,15,4,19,0.20
2013-5-25,58.2,49.3,39.3,40.0,37.5,33.0,96,66,41,29.25,29.10,17,4,24,0.00
2013-5-26,62.7,52.5,42.8,41.0,36.9,29.0,86,58,33,29.25,29.07,15,3,18,0.00
2013-5-27,71.5,56.8,43.2,47.5,40.7,31.0,97,62,25,29.33,29.11,8,2,11,0.00
2013-5-28,64.7,58.3,52.4,63.5,53.4,39.0,98,85,52,29.12,28.95,9,2,10,0.86
2013-5-29,78.9,69.8,61.9,67.5,63.7,61.0,99,82,57,29.09,28.92,22,6,27,0.72
2013-5-30,84.5,74.8,66.5,68.0,64.5,61.5,96,72,50,29.27,29.09,14,5,18,0.00
2013-5-31,86.8,77.5,68.0,67.0,64.3,60.0,96,66,44,29.22,29.05,22,5,22,0.00
2013-6-1,85.7,73.2,66.1,70.5,67.1,64.0,99,83,53,29.05,28.86,21,6,33,0.90
2013-6-2,73.6,67.7,54.8,68.0,62.7,51.0,99,85,59,28.90,28.75,28,7,34,1.17
2013-6-3,62.7,54.9,48.9,52.0,46.7,38.0,92,75,47,29.03,28.90,14,5,21,0.00
2013-6-4,67.4,56.6,46.6,50.5,43.1,32.0,97,65,29,29.22,29.00,12,2,17,0.00
2013-6-5,68.8,58.0,47.3,53.0,46.6,39.0,97,69,37,29.29,29.09,8,2,12,0.00
2013-6-6,59.2,55.8,51.2,58.0,53.0,44.0,98,90,63,29.09,28.84,11,3,16,1.23
2013-6-7,59.2,56.5,52.9,58.0,55.8,52.0,98,97,97,28.90,28.82,7,2,9,0.03
2013-6-8,65.6,59.1,55.6,60.5,56.9,55.0,98,92,77,29.09,28.84,11,3,15,0.04
2013-6-9,76.6,64.5,53.4,60.0,56.3,53.0,97,77,47,29.30,29.08,9,2,13,0.00
2013-6-10,71.7,66.0,63.5,69.0,62.4,56.0,99,89,76,29.15,28.76,14,3,15,0.26
2013-6-11,70.4,64.7,58.3,66.3,62.1,56.5,99,92,74,28.89,28.70,17,5,19,0.11
2013-6-12,76.9,65.9,52.7,61.5,56.9,52.0,98,75,48,29.06,28.82,13,1,16,0.00
2013-6-13,65.6,61.1,55.9,62.0,59.2,55.0,98,94,83,28.82,28.57,12,2,16,1.42
2013-6-14,71.9,62.9,53.5,63.0,57.2,53.0,98,83,54,29.07,28.80,12,2,14,0.00
2013-6-15,73.0,63.3,51.4,56.5,51.6,39.0,97,68,33,29.15,28.97,13,4,15,0.00
2013-6-16,76.7,66.9,62.4,68.5,61.6,55.0,99,84,63,29.00,28.76,14,6,19,0.15
2013-6-17,77.3,69.1,61.4,66.3,61.0,55.0,98,77,51,29.03,28.87,12,4,17,0.00
2013-6-18,70.5,61.7,53.7,60.0,53.4,45.0,98,77,42,29.09,28.92,8,2,14,0.15
2013-6-19,69.3,60.1,49.6,53.5,47.8,37.0,97,68,35,29.27,29.02,10,1,10,0.00
2013-6-20,75.2,61.9,45.0,54.0,48.1,38.0,97,66,34,29.37,29.13,9,2,11,0.00
2013-6-21,81.9,67.9,49.5,62.0,53.8,47.0,97,65,35,29.42,29.19,7,2,9,0.00
2013-6-22,85.3,74.9,63.5,69.3,63.6,56.5,88,69,52,29.27,29.14,17,5,22,0.00
2013-6-23,86.0,78.1,69.9,72.3,67.6,61.5,99,72,45,29.23,29.11,21,6,25,0.21
2013-6-24,84.1,77.4,72.9,70.5,66.3,63.0,81,69,50,29.20,29.05,18,6,23,0.00
2013-6-25,79.4,73.4,68.5,72.3,67.8,64.0,99,83,69,29.05,28.91,22,5,22,0.47
2013-6-26,80.8,73.4,67.9,72.3,67.6,63.0,99,83,62,28.99,28.88,16,5,17,0.01
2013-6-27,79.2,71.2,64.4,73.0,68.3,64.0,99,91,76,28.90,28.71,6,1,9,0.44
2013-6-28,70.6,65.0,61.6,70.0,64.5,61.0,99,98,94,28.72,28.58,6,1,9,0.88
2013-6-29,76.4,66.8,60.9,68.5,63.4,60.5,99,90,59,28.77,28.56,7,2,11,0.63
2013-6-30,77.3,67.9,58.2,69.3,62.7,57.5,99,85,59,29.01,28.76,9,1,12,0.00
2013-7-1,69.0,64.3,59.3,65.0,62.8,58.0,98,95,83,29.11,28.99,10,2,11,0.18
2013-7-2,72.9,64.9,58.6,68.0,63.5,58.0,99,96,82,29.20,29.05,6,1,8,0.02
2013-7-3,84.8,72.6,63.3,76.3,69.4,63.0,99,91,63,29.33,29.14,11,2,22,1.58
2013-7-4,82.8,74.4,69.7,73.3,70.3,65.5,99,88,59,29.31,29.21,12,3,14,0.07
2013-7-5,81.8,74.7,69.8,74.7,70.9,68.5,99,89,69,29.29,29.17,12,3,18,0.18
2013-7-6,84.5,75.0,67.6,73.0,69.3,65.0,99,84,57,29.31,29.17,9,3,11,0.00
2013-7-7,79.8,74.3,70.0,73.3,69.5,66.0,99,86,64,29.17,29.07,20,4,23,0.15
2013-7-8,82.4,74.1,69.5,73.3,70.2,67.5,99,88,65,29.21,29.08,11,3,13,0.00
2013-7-9,79.7,73.7,69.3,74.3,71.2,69.0,99,92,77,29.17,29.01,11,2,16,0.03
2013-7-10,83.1,75.7,70.3,75.5,71.3,66.0,99,87,68,29.01,28.83,21,7,27,0.01
2013-7-11,78.8,69.2,60.4,66.0,60.7,56.5,98,76,51,29.15,28.93,10,2,12,0.00
2013-7-12,76.3,66.8,59.0,68.5,63.8,58.0,99,90,70,29.31,29.07,4,1,6,0.00
2013-7-13,82.8,71.0,58.9,71.7,66.4,58.0,99,86,65,29.39,29.20,10,1,10,0.00
2013-7-14,87.1,76.8,65.1,76.8,70.0,64.5,99,81,55,29.50,29.32,7,1,9,0.00
2013-7-15,88.6,79.4,70.3,77.0,71.6,59.5,99,79,42,29.51,29.35,7,2,9,0.00
2013-7-16,90.3,79.5,69.9,74.3,70.3,63.0,99,77,45,29.51,29.35,7,2,8,0.00
2013-7-17,89.9,81.4,74.5,80.0,75.3,71.0,99,84,57,29.42,29.25,9,5,9,0.00
2013-7-18,88.3,80.2,75.3,79.0,75.2,68.0,99,87,62,29.29,29.10,9,4,9,0.03
2013-7-19,88.1,79.9,68.4,77.0,72.2,66.0,99,79,58,29.10,28.84,9,4,9,1.01
2013-7-20,80.9,73.2,66.4,71.0,65.6,57.0,99,81,47,29.00,28.83,9,3,9,0.61
2013-7-21,76.8,69.1,60.4,66.0,62.3,59.0,98,80,61,29.18,28.98,6,1,9,0.00
2013-7-22,79.5,68.3,57.9,68.0,62.0,57.0,98,82,58,29.11,28.88,8,2,9,0.00
2013-7-23,80.8,71.3,62.6,71.0,66.5,58.0,99,87,60,28.88,28.76,9,3,9,0.19
2013-7-24,70.4,62.0,53.4,60.0,54.0,48.0,97,77,48,29.11,28.80,9,3,9,0.00
2013-7-25,74.1,62.8,51.3,60.0,54.3,50.0,98,77,48,29.27,29.05,9,1,9,0.00
2013-7-26,76.5,64.3,50.4,62.0,54.7,49.0,98,74,49,29.28,29.05,6,1,7,0.00
2013-7-27,79.2,67.7,58.3,68.0,62.3,53.0,99,85,56,29.09,28.90,9,2,9,0.14
2013-7-28,72.6,67.3,59.9,67.0,59.7,53.0,99,79,54,29.06,28.88,9,4,9,0.00
2013-7-29,69.7,63.3,56.5,63.0,58.1,53.0,98,85,59,29.20,29.00,9,4,9,0.00
2013-7-30,74.9,65.4,57.3,62.0,59.0,55.0,98,82,55,29.33,29.18,9,2,9,0.00
2013-7-31,78.5,67.2,56.5,67.0,60.7,52.0,99,83,44,29.28,29.02,7,2,9,0.00
2013-8-1,75.6,68.3,64.3,69.0,64.9,60.0,99,90,60,29.02,28.87,14,3,17,0.07
2013-8-2,75.5,66.3,57.5,68.0,61.5,56.0,99,87,56,29.02,28.89,24,3,24,1.08
2013-8-3,74.2,66.9,59.9,64.0,59.1,53.0,98,79,48,29.06,28.89,11,3,16,0.01
2013-8-4,71.5,63.8,55.9,61.0,55.8,48.0,98,77,49,29.15,28.99,13,3,17,0.00
2013-8-5,74.5,62.3,50.3,60.0,54.0,49.0,98,78,45,29.23,29.04,9,2,11,0.00
2013-8-6,80.6,66.6,54.9,63.0,57.4,52.0,98,76,42,29.20,29.04,7,2,9,0.00
2013-8-7,81.8,72.9,64.2,72.0,65.8,61.0,99,80,59,29.10,28.99,13,4,16,0.00
2013-8-8,82.8,73.4,66.1,73.0,69.5,65.0,99,89,72,29.14,28.98,11,2,14,0.54
2013-8-9,76.4,69.8,64.1,71.0,65.0,56.0,99,87,55,29.05,28.96,11,3,14,0.61
2013-8-10,71.3,65.1,56.0,63.0,56.7,49.0,98,77,47,29.22,29.01,12,3,14,0.00
2013-8-11,75.8,64.1,51.9,64.0,55.4,50.0,98,77,44,29.27,29.10,8,2,10,0.00
2013-8-12,75.9,67.7,57.5,66.0,61.2,57.0,98,82,57,29.19,28.94,11,2,15,0.00
2013-8-13,69.9,64.5,56.9,68.0,59.4,49.0,99,85,58,28.94,28.84,19,4,25,0.43
2013-8-14,68.3,60.2,53.9,57.0,52.6,47.0,97,78,48,29.15,28.88,21,4,21,0.02
2013-8-15,71.8,62.3,51.7,57.0,53.0,50.0,97,74,50,29.25,29.09,13,4,18,0.00
2013-8-16,77.4,64.4,52.7,63.0,56.2,52.0,98,78,45,29.32,29.12,9,2,11,0.00
2013-8-17,80.3,66.7,54.1,65.0,57.8,51.0,98,77,39,29.45,29.24,6,2,9,0.00
2013-8-18,81.8,68.0,55.9,66.0,59.7,54.0,98,78,42,29.40,29.17,6,1,8,0.00
2013-8-19,78.9,69.5,60.4,67.0,62.1,57.0,98,80,49,29.25,29.13,9,3,11,0.00
2013-8-20,81.6,71.3,61.9,67.0,63.5,60.0,99,79,53,29.30,29.13,12,4,15,0.00
2013-8-21,83.6,72.9,63.5,67.0,63.4,61.0,93,75,51,29.33,29.12,11,4,19,0.00
2013-8-22,81.3,72.7,63.9,72.0,65.8,57.0,92,80,63,29.13,29.06,14,4,19,0.00
2013-8-23,75.1,65.4,54.6,61.0,56.6,50.0,98,76,44,29.29,29.05,7,1,9,0.00
2013-8-24,76.8,63.0,49.3,61.0,53.8,48.0,98,76,42,29.51,29.22,8,2,11,0.00
2013-8-25,79.5,66.8,50.7,65.0,55.6,50.0,98,71,38,29.47,29.22,15,3,17,0.03
2013-8-26,77.7,70.8,66.6,72.0,68.3,62.0,99,93,77,29.24,29.04,17,6,21,0.53
2013-8-27,81.8,73.7,68.9,74.0,71.0,68.0,99,93,75,29.11,29.00,9,3,12,0.01
2013-8-28,82.3,73.9,67.3,75.0,70.7,66.0,99,91,70,29.07,28.97,9,1,10,0.06
2013-8-29,84.8,72.8,62.1,74.0,66.9,61.0,99,85,53,29.26,29.05,7,1,10,0.01
2013-8-30,81.2,72.7,64.6,72.0,67.5,64.0,99,85,59,29.13,28.88,12,3,15,0.00
2013-8-31,79.3,72.9,66.1,73.0,69.6,65.0,99,91,77,28.97,28.83,14,3,15,0.00
2013-9-1,79.8,70.9,64.5,72.0,68.4,64.0,99,93,74,29.00,28.86,9,1,11,0.15
2013-9-2,79.3,70.5,61.8,74.0,67.3,57.0,99,91,69,28.91,28.83,14,3,19,0.09
2013-9-3,66.5,62.5,59.1,61.0,59.0,57.0,98,89,81,29.00,28.86,14,4,16,0.00
2013-9-4,75.4,66.0,56.8,66.0,58.1,49.0,98,79,42,29.12,28.99,19,5,25,0.00
2013-9-5,64.7,57.4,45.2,62.0,49.6,37.0,97,78,40,29.27,29.04,13,2,16,0.00
2013-9-6,70.0,56.0,42.7,54.0,47.1,40.0,97,75,37,29.37,29.11,11,2,13,0.00
2013-9-7,64.1,60.3,55.1,63.0,56.5,50.0,98,88,72,29.11,28.94,25,6,25,0.20
2013-9-8,68.4,61.8,48.1,65.0,53.5,43.0,99,77,42,29.19,28.94,10,2,15,0.00
2013-9-9,75.9,59.2,44.5,66.0,53.8,44.0,97,85,54,29.21,29.02,11,2,15,0.00
2013-9-10,85.8,77.1,67.5,74.0,70.4,65.0,99,82,63,29.14,28.99,25,8,30,0.39
2013-9-11,78.8,76.9,71.4,74.0,71.7,69.0,98,85,77,29.18,29.05,19,6,21,0.55
2013-9-12,72.7,68.0,58.3,71.0,66.6,57.0,99,96,85,29.07,28.81,14,3,20,0.35
2013-9-13,60.4,53.9,48.9,60.0,52.6,48.0,98,96,86,29.03,28.81,10,2,14,0.14
2013-9-14,61.1,52.9,48.2,49.0,45.6,36.0,97,78,43,29.18,29.01,11,2,12,0.01
2013-9-15,66.9,56.6,46.8,57.0,51.4,44.0,97,84,64,29.21,29.08,12,4,16,0.11
2013-9-16,56.7,50.4,40.2,53.0,48.5,39.0,97,94,69,29.35,29.07,8,2,16,0.08
2013-9-17,65.1,50.2,36.9,50.0,43.4,36.0,97,80,47,29.53,29.25,8,2,12,0.01
2013-9-18,72.6,57.3,43.6,56.0,48.0,39.0,97,76,33,29.34,29.11,7,2,9,0.00
2013-9-19,78.1,62.4,48.9,64.0,56.7,48.0,98,84,52,29.25,29.05,11,2,12,0.00
2013-9-20,82.1,69.3,56.7,70.0,63.0,56.0,98,83,58,29.09,28.86,14,3,18,0.00
2013-9-21,72.3,63.1,52.9,69.0,61.4,52.0,99,95,78,28.86,28.69,16,3,18,2.53
2013-9-22,57.4,52.3,49.6,52.0,47.2,42.0,97,84,63,29.03,28.76,15,3,19,0.00
2013-9-23,59.4,50.8,41.4,48.0,44.4,40.0,97,80,55,29.21,29.03,10,2,12,0.00
2013-9-24,65.3,50.7,39.2,55.0,44.5,37.0,97,82,39,29.23,28.97,8,1,9,0.00
2013-9-25,69.9,53.6,40.6,58.0,46.9,40.0,98,82,42,29.13,28.93,6,1,11,0.00
2013-9-26,71.6,55.9,41.4,59.0,50.0,40.0,97,83,55,29.22,28.96,7,1,9,0.00
2013-9-27,67.8,56.6,45.8,59.0,52.6,45.0,98,88,67,29.35,29.15,7,1,7,0.00
2013-9-28,76.2,59.6,46.4,62.0,54.3,45.0,98,85,47,29.39,29.16,6,1,9,0.00
2013-9-29,75.8,61.7,48.9,63.0,54.9,48.0,98,81,47,29.18,29.03,12,2,16,0.00
2013-9-30,74.2,64.5,59.0,63.0,59.5,55.0,98,85,67,29.11,29.03,11,3,12,0.00
2013-10-1,73.1,65.0,57.1,64.0,60.4,54.0,98,87,57,29.14,28.97,15,3,16,0.00
2013-10-2,74.9,66.9,53.4,66.0,61.7,52.0,98,86,47,29.14,28.97,14,4,18,0.00
2013-10-3,72.6,59.2,45.7,59.0,51.3,42.0,98,79,36,29.25,29.05,4,1,5,0.28
2013-10-4,67.4,62.8,59.6,67.0,62.0,58.0,99,98,95,29.12,29.03,6,1,7,0.36
2013-10-5,63.1,60.1,58.2,62.0,59.0,57.0,98,97,94,29.15,29.06,9,2,11,0.40
2013-10-6,80.5,68.2,59.7,73.0,65.1,59.0,99,91,66,29.05,28.81,11,2,14,0.32
2013-10-7,74.1,60.0,49.7,66.0,55.0,45.0,98,85,63,29.03,28.70,20,6,27,0.50
2013-10-8,64.8,53.6,45.6,53.0,47.2,43.0,97,82,48,29.39,29.03,9,2,12,0.00
2013-10-9,70.1,53.5,40.1,53.0,46.2,39.0,97,80,39,29.46,29.23,7,1,8,0.00
2013-10-10,69.8,53.5,39.1,53.0,45.2,38.0,97,78,34,29.35,29.10,6,1,10,0.00
2013-10-11,71.3,54.3,43.8,57.0,48.8,43.0,97,84,48,29.26,29.07,6,1,9,0.00
2013-10-12,75.2,58.4,41.9,55.0,46.2,37.0,97,69,27,29.29,29.07,10,2,11,0.01
2013-10-13,67.8,62.3,56.6,64.0,55.2,43.0,98,79,55,29.33,29.17,11,2,11,0.20
2013-10-14,64.6,55.9,44.9,61.0,50.8,44.0,98,85,55,29.40,29.23,8,2,14,0.09
2013-10-15,69.8,55.6,41.3,57.0,50.9,40.0,97,86,59,29.25,28.97,9,2,12,0.00
2013-10-16,69.6,62.6,54.7,62.0,58.1,53.0,98,86,70,28.98,28.80,16,5,20,0.24
2013-10-17,62.9,55.0,49.7,55.0,51.3,48.0,97,89,66,28.92,28.70,14,3,14,0.28
2013-10-18,58.8,52.6,48.2,51.0,46.3,38.0,97,81,52,28.91,28.71,21,5,24,0.01
2013-10-19,59.9,51.9,42.6,52.0,46.7,42.0,97,83,58,28.87,28.63,14,5,19,0.18
2013-10-20,54.1,46.5,39.9,47.0,43.3,39.0,97,89,62,28.93,28.69,13,4,16,0.00
2013-10-21,65.7,55.1,45.9,53.0,43.0,37.0,97,68,37,28.95,28.77,26,6,27,0.12
2013-10-22,49.7,45.1,41.3,49.0,37.0,29.0,97,74,51,28.81,28.72,19,6,27,0.38
2013-10-23,46.0,40.2,34.9,44.0,37.5,32.0,96,90,71,28.75,28.65,12,3,13,0.05
2013-10-24,46.9,39.5,32.9,40.0,35.8,32.0,96,87,65,28.93,28.68,17,6,22,0.09
2013-10-25,49.2,41.2,33.6,43.0,37.6,33.0,96,87,62,29.14,28.92,14,3,18,0.25
2013-10-26,44.6,41.0,37.9,41.0,37.0,31.0,96,86,63,29.03,28.69,27,9,35,0.36
2013-10-27,47.5,41.4,35.7,43.0,37.9,35.0,96,87,68,28.96,28.72,14,4,17,0.00
2013-10-28,48.7,41.6,26.7,42.0,33.0,21.0,94,73,35,29.28,28.94,14,3,16,0.00
2013-10-29,49.4,36.5,25.1,36.0,30.2,24.0,95,79,44,29.39,29.17,9,2,11,0.00
2013-10-30,59.7,45.4,37.8,45.0,40.3,37.0,96,84,51,29.19,29.00,6,2,9,0.03
2013-10-31,68.1,56.7,43.6,61.0,53.5,41.0,98,90,71,29.00,28.36,25,6,29,0.53
2013-11-1,64.7,56.1,48.2,61.0,51.2,44.0,98,84,69,28.62,28.17,36,12,48,0.15
2013-11-2,50.1,44.1,37.2,47.0,42.9,33.0,97,95,87,28.90,28.54,16,4,16,0.15
2013-11-3,39.4,32.4,23.4,35.0,26.1,21.0,94,77,52,29.31,28.90,10,3,13,0.00
2013-11-4,41.2,33.1,22.8,31.0,24.3,21.0,94,71,45,29.50,29.25,11,3,14,0.00
2013-11-5,60.5,47.2,33.9,40.0,33.1,23.0,74,58,42,29.38,29.23,14,5,16,0.00
2013-11-6,67.2,56.9,47.4,58.0,45.6,33.0,98,68,53,29.23,28.76,24,6,27,0.21
2013-11-7,56.6,45.4,41.8,56.0,41.0,32.0,97,85,63,28.89,28.75,19,7,24,0.15
2013-11-8,38.9,38.5,38.1,33.0,32.4,32.0,81,79,76,29.09,29.07,6,3,7,0.00
2013-11-9,51.7,42.9,33.5,47.0,35.0,29.0,97,75,46,29.07,28.67,21,5,24,0.22
2013-11-10,49.0,43.7,38.9,45.0,38.2,33.0,95,80,66,29.03,28.67,31,8,34,0.06
2013-11-11,44.9,37.6,29.9,42.0,34.2,24.0,96,88,70,29.03,28.80,21,6,29,0.34
2013-11-12,32.9,28.3,24.5,28.0,22.9,16.0,94,79,58,29.18,28.93,18,4,22,0.01
2013-11-13,39.1,31.2,21.7,31.0,24.8,18.0,94,76,53,29.21,28.88,28,7,31,0.01
2013-11-14,48.6,43.4,38.3,36.0,28.3,18.0,81,57,31,28.95,28.86,30,12,37,0.04
2013-11-15,52.5,45.8,41.0,36.0,27.9,23.0,68,49,38,28.99,28.88,21,6,24,0.00
2013-11-16,59.9,50.4,40.9,44.0,36.5,28.0,75,59,46,29.16,28.90,11,3,12,0.00
2013-11-17,63.1,58.3,52.3,58.0,52.7,44.0,98,83,71,28.91,28.29,25,7,38,0.27
2013-11-18,57.1,45.7,36.5,49.0,37.5,31.0,89,73,63,28.75,28.29,41,14,51,0.19
2013-11-19,37.9,33.6,24.2,33.0,26.8,21.0,95,76,62,29.20,28.74,21,5,30,0.00
2013-11-20,39.1,29.4,19.5,28.0,23.0,18.0,94,78,55,29.40,29.18,14,3,16,0.00
2013-11-21,46.2,38.4,25.9,40.0,29.4,18.0,96,70,49,29.25,29.07,14,3,14,0.06
2013-11-22,47.4,41.8,31.1,46.0,40.5,28.0,97,95,85,29.07,28.87,19,4,28,0.39
2013-11-23,32.4,26.9,16.5,29.0,22.9,8.0,94,83,53,28.98,28.80,25,7,29,0.00
2013-11-24,23.2,18.9,14.5,18.0,14.7,11.0,93,80,60,29.09,28.91,17,6,24,0.00
2013-11-25,34.3,26.9,16.9,29.0,17.7,11.0,93,68,41,29.06,28.82,24,7,27,0.00
2013-11-26,35.2,32.4,30.1,33.0,30.8,28.0,95,93,82,28.88,28.56,15,3,21,0.04
2013-11-27,32.9,29.5,22.3,32.0,27.5,18.0,95,91,82,28.63,28.42,21,4,23,0.00
2013-11-28,26.9,21.9,16.7,21.0,16.9,14.0,93,78,56,29.10,28.63,16,3,22,0.01
2013-11-29,31.6,20.9,12.8,24.0,16.2,11.0,93,82,51,29.41,29.10,7,1,7,0.09
2013-11-30,34.2,25.0,12.8,28.0,19.0,11.0,93,76,58,29.33,28.88,12,4,15,0.00
2013-12-1,41.6,36.6,32.9,37.0,32.0,26.0,95,82,65,28.88,28.69,11,3,14,0.15
2013-12-2,38.8,36.2,28.5,38.0,34.2,26.0,96,92,84,28.69,28.60,9,2,11,0.01
2013-12-3,42.6,33.2,26.2,33.0,29.4,24.0,95,85,58,28.76,28.60,6,2,6,0.00
2013-12-4,49.9,39.8,33.7,43.0,37.2,31.0,96,91,74,28.79,28.64,14,3,14,0.02
2013-12-5,63.7,51.2,39.2,56.0,45.9,33.0,93,83,70,28.78,28.57,22,8,33,0.00
2013-12-6,38.9,33.3,30.1,36.0,29.0,24.0,95,83,73,28.95,28.75,16,5,16,0.04
2013-12-7,30.2,26.7,22.6,26.0,20.6,14.0,88,76,60,29.22,28.95,16,6,19,0.00
2013-12-8,27.2,23.7,17.5,24.0,17.1,14.0,94,74,58,29.24,28.87,17,4,19,0.00
2013-12-9,38.7,32.4,25.6,38.0,30.2,24.0,96,91,80,28.87,28.57,26,9,33,0.03
2013-12-10,28.9,23.0,19.9,24.0,15.5,8.0,93,71,50,28.71,28.58,23,8,29,0.01
2013-12-11,25.1,20.8,15.7,21.0,14.5,11.0,93,74,62,28.91,28.71,26,9,29,0.00
2013-12-12,20.5,15.9,10.2,18.0,11.0,4.0,93,77,53,28.97,28.70,24,8,31,0.00
2013-12-13,22.6,17.6,10.4,21.0,14.6,4.0,93,85,72,29.02,28.69,23,5,27,0.00
2013-12-14,18.2,13.6,9.9,16.0,11.9,8.0,93,92,80,29.05,28.43,13,4,17,0.00
2013-12-15,24.3,20.4,17.5,23.0,17.9,14.0,93,90,75,28.52,28.31,26,5,30,0.00
2013-12-16,20.6,13.8,4.6,16.0,11.4,8.0,93,85,60,28.84,28.53,19,4,22,0.00
2013-12-17,25.7,17.4,4.4,24.0,16.5,4.0,93,91,82,28.82,28.63,17,3,21,0.00
2013-12-18,31.1,27.2,22.6,26.0,23.3,21.0,94,83,72,28.83,28.68,17,6,22,0.00
2013-12-19,41.4,35.1,26.8,36.0,29.3,18.0,95,78,65,28.86,28.66,19,5,24,0.21
2013-12-20,43.2,37.7,34.3,42.0,36.3,33.0,96,95,95,28.81,28.60,13,2,16,0.52
2013-12-21,53.3,35.6,30.4,52.0,34.3,29.0,97,95,88,28.70,28.54,14,2,16,0.81
2013-12-22,38.9,34.0,30.4,38.0,33.0,29.0,96,95,94,28.80,28.44,14,2,15,1.77
2013-12-23,38.9,32.5,23.9,38.0,31.1,21.0,96,94,85,29.03,28.78,12,4,15,0.00
2013-12-24,24.6,18.9,12.3,23.0,16.8,11.0,93,92,83,29.19,28.96,12,3,17,0.00
2013-12-25,21.2,12.4,-0.3,18.0,10.6,0.0,93,86,70,29.20,28.93,6,2,8,0.00
2013-12-26,30.7,26.3,19.5,28.0,22.7,16.0,94,84,72,29.01,28.81,19,5,20,0.00
2013-12-27,34.8,27.3,18.2,31.0,24.5,14.0,94,88,75,29.03,28.85,16,5,19,0.01
2013-12-28,42.3,38.9,33.3,37.0,34.0,29.0,95,82,67,28.91,28.76,26,8,33,0.03
2013-12-29,46.9,41.7,26.6,41.0,32.7,24.0,96,71,49,28.78,28.47,17,6,21,0.00
2013-12-30,26.5,17.9,13.1,24.0,13.5,4.0,93,78,65,28.94,28.56,19,5,29,0.00
2013-12-31,21.3,17.0,13.2,18.0,12.5,4.0,93,80,64,28.95,28.70,27,8,36,0.00
2014-1-1,20.7,15.4,13.3,16.0,11.5,8.0,93,83,63,29.14,28.92,20,5,21,0.00
2014-1-2,13.6,8.5,3.9,11.0,8.0,4.0,93,92,91,29.01,28.70,16,7,20,0.00